Time;durP1;ratioP1;P1;durP2;ratioP2;P2;SDS_P1;SDS_P2;PMS_P1;PMS_P2;Temp;Humidity;BMP_temperature;BMP_pressure;BME280_temperature;BME280_humidity;BME280_pressure;Samples;Min_cycle;Max_cycle;Signal;HPM_P1;HPM_P2
2023/06/28 00:00:05;;;;;;;;;;;15.20;99.90;;;;;;5099290;28;20542;-85
2023/06/28 00:02:42;;;;;;;;;;;15.20;99.90;;;;;;5117664;28;20814;-85
2023/06/28 00:05:08;;;;;;;;;;;15.10;99.90;;;;;;5115450;28;19915;-85
2023/06/28 00:07:34;;;;;;;;;;;15.20;99.90;;;;;;5098685;28;20301;-85
2023/06/28 00:10:00;;;;;;;;;;;15.20;99.90;;;;;;5099214;28;19958;-85
2023/06/28 00:12:28;;;;;;;;;;;15.20;99.90;;;;;;5100012;28;19907;-84
2023/06/28 00:14:54;;;;;;;;;;;15.30;99.90;;;;;;5115130;28;20006;-85
2023/06/28 00:17:20;;;;;;;;;;;15.30;99.90;;;;;;5098173;28;19958;-85
2023/06/28 00:19:48;;;;;;;;;;;15.30;99.90;;;;;;5115679;28;19926;-85
2023/06/28 00:22:14;;;;;;;;;;;15.30;99.90;;;;;;5098614;28;19915;-85
2023/06/28 00:24:41;;;;;;;;;;;15.30;99.90;;;;;;5097998;28;20002;-85
2023/06/28 00:27:07;;;;;;;;;;;15.30;99.90;;;;;;5115744;28;19926;-85
2023/06/28 00:29:32;;;;;;;;;;;15.30;99.90;;;;;;5098218;28;19916;-84
2023/06/28 00:31:58;;;;;;;;;;;15.30;99.90;;;;;;5099362;28;19939;-84
2023/06/28 00:34:26;;;;;;;;;;;15.30;99.90;;;;;;5098405;28;19919;-85
2023/06/28 00:36:52;;;;;;;;;;;15.30;99.90;;;;;;5150812;27;19911;-84
2023/06/28 00:39:18;;;;;;;;;;;15.30;99.90;;;;;;5117471;27;19947;-85
2023/06/28 00:41:44;;;;;;;;;;;15.40;99.90;;;;;;5119918;27;19919;-85
2023/06/28 00:44:09;;;;;;;;;;;15.40;99.90;;;;;;5102857;27;19918;-85
2023/06/28 00:46:35;;;;;;;;;;;15.30;99.90;;;;;;5102473;27;20389;-85
2023/06/28 00:49:01;;;;;;;;;;;15.30;99.90;;;;;;5101222;27;19911;-85
2023/06/28 00:51:29;;;;;;;;;;;15.20;99.90;;;;;;5132645;27;20390;-85
2023/06/28 00:53:56;;;;;;;;;;;15.20;99.90;;;;;;5102060;27;19998;-85
2023/06/28 00:56:23;;;;;;;;;;;15.10;99.90;;;;;;5119137;27;20025;-85
2023/06/28 00:58:50;;;;;;;;;;;15.10;99.90;;;;;;5118599;27;19915;-85
2023/06/28 01:01:17;;;;;;;;;;;15.10;99.90;;;;;;5102682;27;20600;-84
2023/06/28 01:03:45;;;;;;;;;;;15.00;99.90;;;;;;5102539;27;19955;-85
2023/06/28 01:06:17;;;;;;;;;;;15.10;99.90;;;;;;5102298;27;19918;-84
2023/06/28 01:08:43;;;;;;;;;;;15.10;99.90;;;;;;5118475;27;19926;-84
2023/06/28 01:11:11;;;;;;;;;;;15.00;99.90;;;;;;5102662;27;19912;-84
2023/06/28 01:13:37;;;;;;;;;;;15.10;99.90;;;;;;5102539;27;20297;-84
2023/06/28 01:16:04;;;;;;;;;;;15.10;99.90;;;;;;5102592;27;19911;-84
2023/06/28 01:18:33;;;;;;;;;;;15.10;99.90;;;;;;5120405;27;20399;-83
2023/06/28 01:21:04;;;;;;;;;;;15.10;99.90;;;;;;5104417;27;20491;-84
2023/06/28 01:23:29;;;;;;;;;;;15.10;99.90;;;;;;5104655;27;19911;-84
2023/06/28 01:26:02;;;;;;;;;;;15.10;99.90;;;;;;5112152;27;19918;-83
2023/06/28 01:28:29;;;;;;;;;;;15.10;99.90;;;;;;5097708;28;19924;-83
2023/06/28 01:30:55;;;;;;;;;;;15.20;99.90;;;;;;5101795;27;19915;-84
2023/06/28 01:33:20;;;;;;;;;;;15.20;99.90;;;;;;5136935;27;20671;-83
2023/06/28 01:35:46;;;;;;;;;;;15.20;99.90;;;;;;5118600;27;19964;-84
2023/06/28 01:38:12;;;;;;;;;;;15.10;99.90;;;;;;5101590;27;19957;-83
2023/06/28 01:40:53;;;;;;;;;;;15.10;99.90;;;;;;5100787;27;19911;-83
2023/06/28 01:43:19;;;;;;;;;;;15.10;99.90;;;;;;5118871;27;20338;-84
2023/06/28 01:45:44;;;;;;;;;;;15.10;99.90;;;;;;5118533;27;19963;-84
2023/06/28 01:48:10;;;;;;;;;;;15.00;99.90;;;;;;5101447;27;19923;-84
2023/06/28 01:50:36;;;;;;;;;;;15.00;99.90;;;;;;5116902;27;19911;-84
2023/06/28 01:53:04;;;;;;;;;;;15.00;99.90;;;;;;5118366;27;19911;-83
2023/06/28 01:55:29;;;;;;;;;;;14.90;99.90;;;;;;5100795;27;19960;-84
2023/06/28 01:57:58;;;;;;;;;;;14.90;99.90;;;;;;5118776;27;20370;-84
2023/06/28 02:00:24;;;;;;;;;;;14.90;99.90;;;;;;5117116;27;19969;-84
2023/06/28 02:02:50;;;;;;;;;;;14.80;99.90;;;;;;5101244;27;19916;-83
2023/06/28 02:05:16;;;;;;;;;;;14.70;99.90;;;;;;5117817;27;19926;-84
2023/06/28 02:07:43;;;;;;;;;;;14.70;99.90;;;;;;5118032;27;20251;-83
2023/06/28 02:10:12;;;;;;;;;;;14.60;99.90;;;;;;5117578;27;19915;-83
2023/06/28 02:12:38;;;;;;;;;;;14.50;99.90;;;;;;5117255;27;19921;-84
2023/06/28 02:15:05;;;;;;;;;;;14.50;99.90;;;;;;5100878;27;19912;-84
2023/06/28 02:17:31;;;;;;;;;;;14.50;99.90;;;;;;5083941;27;20366;-84
2023/06/28 02:19:58;;;;;;;;;;;14.50;99.90;;;;;;5100406;27;20002;-84
2023/06/28 02:22:29;;;;;;;;;;;14.50;99.90;;;;;;5118390;27;19915;-84
2023/06/28 02:24:55;;;;;;;;;;;14.40;99.90;;;;;;5100417;27;20435;-84
2023/06/28 02:27:20;;;;;;;;;;;14.40;99.90;;;;;;5099940;27;19915;-84
2023/06/28 02:29:46;;;;;;;;;;;14.30;99.90;;;;;;5135206;27;20445;-84
2023/06/28 02:32:12;;;;;;;;;;;14.20;99.90;;;;;;5100067;27;19918;-84
2023/06/28 02:34:38;;;;;;;;;;;14.10;99.90;;;;;;5099017;27;19915;-84
2023/06/28 02:37:06;;;;;;;;;;;14.00;99.90;;;;;;5100033;27;19961;-84
2023/06/28 02:39:31;;;;;;;;;;;13.90;99.90;;;;;;5099516;27;20312;-83
2023/06/28 02:41:58;;;;;;;;;;;13.90;99.90;;;;;;5134932;27;19899;-84
2023/06/28 02:44:23;;;;;;;;;;;13.80;99.90;;;;;;5099446;27;19967;-83
2023/06/28 02:46:49;;;;;;;;;;;13.70;99.90;;;;;;5116017;27;19911;-83
2023/06/28 02:49:15;;;;;;;;;;;13.70;99.90;;;;;;5116973;27;19915;-83
2023/06/28 02:51:41;;;;;;;;;;;13.60;99.90;;;;;;5117057;27;19994;-84
2023/06/28 02:54:09;;;;;;;;;;;13.50;99.90;;;;;;5100021;27;19915;-83
2023/06/28 02:56:36;;;;;;;;;;;13.40;99.90;;;;;;5099868;27;19912;-83
2023/06/28 02:59:20;;;;;;;;;;;13.40;99.90;;;;;;5114730;27;19934;-83
2023/06/28 03:01:48;;;;;;;;;;;13.40;99.90;;;;;;5115156;27;20359;-83
2023/06/28 03:04:15;;;;;;;;;;;13.40;99.90;;;;;;5099920;27;20283;-83
2023/06/28 03:06:41;;;;;;;;;;;13.50;99.90;;;;;;5100057;27;19965;-83
2023/06/28 03:09:07;;;;;;;;;;;13.60;99.90;;;;;;5116857;27;19923;-82
2023/06/28 03:11:32;;;;;;;;;;;13.60;99.90;;;;;;5099444;27;20278;-83
2023/06/28 03:14:01;;;;;;;;;;;13.60;99.90;;;;;;5099243;27;19915;-83
2023/06/28 03:16:26;;;;;;;;;;;13.70;99.90;;;;;;5096350;27;20452;-83
2023/06/28 03:18:52;;;;;;;;;;;13.80;99.90;;;;;;5115306;27;19916;-84
2023/06/28 03:21:18;;;;;;;;;;;13.80;99.90;;;;;;5097589;27;19916;-82
2023/06/28 03:23:44;;;;;;;;;;;13.90;99.90;;;;;;5106424;27;19912;-82
2023/06/28 03:26:10;;;;;;;;;;;14.00;99.90;;;;;;5098493;27;19911;-81
2023/06/28 03:28:35;;;;;;;;;;;14.10;99.90;;;;;;5098127;27;19922;-81
2023/06/28 03:31:01;;;;;;;;;;;14.10;99.90;;;;;;5098288;27;19960;-81
2023/06/28 03:33:27;;;;;;;;;;;14.20;99.90;;;;;;5115867;27;20035;-81
2023/06/28 03:35:52;;;;;;;;;;;14.30;99.90;;;;;;5097899;27;19911;-81
2023/06/28 03:38:18;;;;;;;;;;;14.30;99.90;;;;;;5116364;27;19921;-82
2023/06/28 03:40:44;;;;;;;;;;;14.30;99.90;;;;;;5115418;27;19915;-82
2023/06/28 03:43:09;;;;;;;;;;;14.40;99.90;;;;;;5099216;27;19939;-81
2023/06/28 03:45:35;;;;;;;;;;;14.50;99.90;;;;;;5115794;27;20359;-82
2023/06/28 03:48:01;;;;;;;;;;;14.50;99.90;;;;;;5099062;27;19915;-81
2023/06/28 03:50:27;;;;;;;;;;;14.60;99.90;;;;;;5098480;27;19921;-82
2023/06/28 03:52:53;;;;;;;;;;;14.70;99.90;;;;;;5098744;28;19911;-82
2023/06/28 03:55:19;;;;;;;;;;;14.70;99.90;;;;;;5098276;28;19908;-82
2023/06/28 03:57:44;;;;;;;;;;;14.80;99.90;;;;;;5102253;28;20393;-82
2023/06/28 04:00:32;;;;;;;;;;;14.80;99.90;;;;;;5098513;28;19932;-81
2023/06/28 04:02:57;;;;;;;;;;;14.80;99.90;;;;;;5132585;28;19915;-81
2023/06/28 04:05:23;;;;;;;;;;;14.80;99.90;;;;;;5132896;28;19923;-82
2023/06/28 04:07:54;;;;;;;;;;;14.80;99.90;;;;;;5114672;28;19959;-82
2023/06/28 04:10:59;;;;;;;;;;;14.90;99.90;;;;;;5133387;28;19988;-82
2023/06/28 04:13:25;;;;;;;;;;;15.00;99.90;;;;;;5097696;28;20639;-82
2023/06/28 04:15:52;;;;;;;;;;;15.00;99.90;;;;;;5102199;27;19915;-82
2023/06/28 04:18:17;;;;;;;;;;;15.10;99.90;;;;;;5102297;27;19926;-82
2023/06/28 04:20:43;;;;;;;;;;;15.10;99.90;;;;;;5119595;27;19916;-82
2023/06/28 04:23:08;;;;;;;;;;;15.10;99.90;;;;;;5101671;27;19967;-82
2023/06/28 04:25:34;;;;;;;;;;;15.20;99.90;;;;;;5119168;27;20055;-82
2023/06/28 04:28:00;;;;;;;;;;;15.20;99.90;;;;;;5101853;27;20393;-82
2023/06/28 04:30:25;;;;;;;;;;;15.30;99.90;;;;;;5102484;27;19915;-82
2023/06/28 04:32:51;;;;;;;;;;;15.30;99.90;;;;;;5101967;27;20386;-82
2023/06/28 04:35:18;;;;;;;;;;;15.30;99.90;;;;;;5102053;27;19950;-82
2023/06/28 04:37:43;;;;;;;;;;;15.30;99.90;;;;;;5101725;27;19911;-82
2023/06/28 04:40:09;;;;;;;;;;;15.40;99.90;;;;;;5119120;27;19918;-81
2023/06/28 04:42:38;;;;;;;;;;;15.40;99.90;;;;;;5101595;27;19912;-81
2023/06/28 04:45:06;;;;;;;;;;;15.40;99.90;;;;;;5118771;27;19911;-81
2023/06/28 04:47:31;;;;;;;;;;;15.50;99.90;;;;;;5119327;27;20346;-82
2023/06/28 04:49:58;;;;;;;;;;;15.50;99.90;;;;;;5118977;27;19958;-82
2023/06/28 04:52:33;;;;;;;;;;;15.50;99.90;;;;;;5118394;27;20287;-82
2023/06/28 04:54:58;;;;;;;;;;;15.50;99.90;;;;;;5101122;27;19915;-82
2023/06/28 04:57:24;;;;;;;;;;;15.60;99.90;;;;;;5118401;27;20077;-82
2023/06/28 04:59:50;;;;;;;;;;;15.60;99.90;;;;;;5100952;27;19911;-81
2023/06/28 05:02:15;;;;;;;;;;;15.70;99.90;;;;;;5136383;27;19908;-82
2023/06/28 05:04:41;;;;;;;;;;;15.70;99.90;;;;;;5100945;27;19986;-82
2023/06/28 05:07:09;;;;;;;;;;;15.70;99.90;;;;;;5101296;27;20019;-82
2023/06/28 05:09:35;;;;;;;;;;;15.70;99.90;;;;;;5101280;27;19981;-82
2023/06/28 05:12:01;;;;;;;;;;;15.70;99.90;;;;;;5101203;27;19919;-82
2023/06/28 05:14:28;;;;;;;;;;;15.80;99.90;;;;;;5101606;27;19919;-82
2023/06/28 05:17:12;;;;;;;;;;;15.80;99.90;;;;;;5136875;27;20362;-82
2023/06/28 05:19:38;;;;;;;;;;;15.90;99.90;;;;;;5137127;27;19919;-82
2023/06/28 05:22:03;;;;;;;;;;;16.00;99.90;;;;;;5117908;27;19967;-82
2023/06/28 05:24:29;;;;;;;;;;;16.00;99.90;;;;;;5118095;27;19911;-82
2023/06/28 05:26:54;;;;;;;;;;;16.00;99.90;;;;;;5118269;27;19915;-82
2023/06/28 05:29:20;;;;;;;;;;;16.00;99.90;;;;;;5136697;27;19922;-82
2023/06/28 05:31:46;;;;;;;;;;;16.10;99.90;;;;;;5118501;27;19915;-82
2023/06/28 05:34:11;;;;;;;;;;;16.10;99.90;;;;;;5117624;27;19919;-82
2023/06/28 05:36:37;;;;;;;;;;;16.20;99.90;;;;;;5100949;27;19922;-81
2023/06/28 05:39:03;;;;;;;;;;;16.20;99.90;;;;;;5100721;27;19912;-82
2023/06/28 05:41:30;;;;;;;;;;;16.20;99.90;;;;;;5118087;27;19962;-82
2023/06/28 05:43:55;;;;;;;;;;;16.20;99.90;;;;;;5100885;27;19912;-82
2023/06/28 05:46:21;;;;;;;;;;;16.20;99.90;;;;;;5118233;27;20382;-82
2023/06/28 05:48:46;;;;;;;;;;;16.20;99.90;;;;;;5100360;27;20398;-82
2023/06/28 05:51:21;;;;;;;;;;;16.30;99.90;;;;;;5117209;27;19940;-82
2023/06/28 05:53:47;;;;;;;;;;;16.40;99.90;;;;;;5100351;27;20266;-82
2023/06/28 05:56:12;;;;;;;;;;;16.60;99.90;;;;;;5117368;27;19911;-81
2023/06/28 05:58:38;;;;;;;;;;;16.70;99.90;;;;;;5100496;27;19911;-82
2023/06/28 06:01:04;;;;;;;;;;;16.70;99.90;;;;;;5100537;27;19911;-82
2023/06/28 06:03:30;;;;;;;;;;;16.70;99.90;;;;;;5100328;27;19912;-82
2023/06/28 06:05:56;;;;;;;;;;;16.70;99.90;;;;;;5116685;27;19960;-81
2023/06/28 06:08:21;;;;;;;;;;;16.80;99.90;;;;;;5117002;27;20410;-82
2023/06/28 06:10:47;;;;;;;;;;;16.80;99.90;;;;;;5116990;27;19919;-82
2023/06/28 06:13:12;;;;;;;;;;;16.80;99.90;;;;;;5135446;27;20002;-82
2023/06/28 06:15:38;;;;;;;;;;;16.80;99.90;;;;;;5100163;27;19918;-81
2023/06/28 06:18:03;;;;;;;;;;;16.70;99.90;;;;;;5099894;27;20422;-82
2023/06/28 06:20:31;;;;;;;;;;;16.70;99.90;;;;;;5135646;27;19911;-82
2023/06/28 06:22:56;;;;;;;;;;;16.70;99.90;;;;;;5112072;27;20032;-82
2023/06/28 06:25:22;;;;;;;;;;;16.70;99.90;;;;;;5099233;27;19912;-82
2023/06/28 06:27:47;;;;;;;;;;;16.70;99.90;;;;;;5099335;27;19911;-82
2023/06/28 06:30:13;;;;;;;;;;;16.80;99.90;;;;;;5117366;27;19912;-82
2023/06/28 06:32:39;;;;;;;;;;;16.80;99.90;;;;;;5099346;27;19915;-82
2023/06/28 06:35:08;;;;;;;;;;;16.80;99.90;;;;;;5094679;27;19941;-82
2023/06/28 06:37:33;;;;;;;;;;;16.90;99.90;;;;;;5098627;27;19911;-82
2023/06/28 06:39:59;;;;;;;;;;;17.10;99.90;;;;;;5098823;27;20415;-82
2023/06/28 06:42:24;;;;;;;;;;;17.20;99.90;;;;;;5135477;27;20453;-81
2023/06/28 06:44:51;;;;;;;;;;;17.40;99.90;;;;;;5115999;27;19915;-81
2023/06/28 06:47:16;;;;;;;;;;;17.50;99.90;;;;;;5134416;27;19969;-82
2023/06/28 06:49:42;;;;;;;;;;;17.50;99.90;;;;;;5116195;27;20380;-82
2023/06/28 06:52:08;;;;;;;;;;;17.50;99.90;;;;;;5099295;27;19911;-81
2023/06/28 06:54:33;;;;;;;;;;;17.60;99.90;;;;;;5099325;27;19911;-81
2023/06/28 06:56:59;;;;;;;;;;;17.60;99.90;;;;;;5098560;27;19919;-81
2023/06/28 06:59:26;;;;;;;;;;;17.60;99.90;;;;;;5099103;27;20669;-81
2023/06/28 07:01:52;;;;;;;;;;;17.70;99.90;;;;;;5115547;27;19967;-82
2023/06/28 07:04:18;;;;;;;;;;;17.80;99.90;;;;;;5115292;27;19971;-82
2023/06/28 07:06:47;;;;;;;;;;;17.90;99.90;;;;;;5098452;27;19923;-82
2023/06/28 07:09:16;;;;;;;;;;;17.90;99.90;;;;;;5115499;27;20366;-82
2023/06/28 07:11:42;;;;;;;;;;;17.90;99.90;;;;;;5097655;27;19989;-81
2023/06/28 07:14:09;;;;;;;;;;;18.00;99.90;;;;;;5099039;27;20005;-82
2023/06/28 07:16:35;;;;;;;;;;;18.10;99.90;;;;;;5134898;27;19912;-82
2023/06/28 07:19:16;;;;;;;;;;;18.20;99.90;;;;;;5098447;27;20335;-82
2023/06/28 07:21:41;;;;;;;;;;;18.30;99.90;;;;;;5098470;27;19960;-82
2023/06/28 07:24:07;;;;;;;;;;;18.60;99.90;;;;;;5114695;27;20609;-82
2023/06/28 07:26:33;;;;;;;;;;;18.80;99.90;;;;;;5117009;27;19907;-82
2023/06/28 07:28:59;;;;;;;;;;;19.00;99.90;;;;;;5134242;27;19915;-82
2023/06/28 07:31:24;;;;;;;;;;;19.10;99.90;;;;;;5115010;27;19966;-82
2023/06/28 07:33:50;;;;;;;;;;;19.30;99.90;;;;;;5098432;27;19912;-82
2023/06/28 07:36:50;;;;;;;;;;;19.40;99.90;;;;;;5114418;27;19917;-82
2023/06/28 07:39:16;;;;;;;;;;;19.50;99.90;;;;;;5093294;27;19957;-82
2023/06/28 07:41:41;;;;;;;;;;;19.80;99.90;;;;;;5115600;27;20617;-82
2023/06/28 07:44:07;;;;;;;;;;;20.00;99.90;;;;;;5098204;27;19920;-82
2023/06/28 07:46:32;;;;;;;;;;;20.30;99.90;;;;;;5115397;27;19911;-82
2023/06/28 07:48:59;;;;;;;;;;;20.70;99.90;;;;;;5132223;27;19962;-82
2023/06/28 07:51:25;;;;;;;;;;;21.20;99.90;;;;;;5114810;27;19912;-82
2023/06/28 07:53:51;;;;;;;;;;;21.40;99.90;;;;;;5097655;28;19918;-82
2023/06/28 07:56:17;;;;;;;;;;;21.80;99.90;;;;;;5114961;27;19919;-82
2023/06/28 07:58:43;;;;;;;;;;;22.00;99.90;;;;;;5098191;28;20370;-82
2023/06/28 08:01:08;;;;;;;;;;;22.20;99.90;;;;;;5097457;28;19922;-82
2023/06/28 08:03:34;;;;;;;;;;;22.10;99.90;;;;;;5097567;28;20426;-82
2023/06/28 08:06:00;;;;;;;;;;;22.10;99.90;;;;;;5097916;28;19912;-82
2023/06/28 08:08:25;;;;;;;;;;;22.60;99.90;;;;;;5097639;28;19958;-82
2023/06/28 08:10:52;;;;;;;;;;;22.80;99.90;;;;;;5115199;28;20476;-82
2023/06/28 08:13:18;;;;;;;;;;;23.20;99.90;;;;;;5097754;28;19972;-82
2023/06/28 08:15:44;;;;;;;;;;;23.40;99.70;;;;;;5115430;28;19911;-82
2023/06/28 08:18:09;;;;;;;;;;;22.90;99.00;;;;;;5133429;28;20274;-82
2023/06/28 08:20:35;;;;;;;;;;;22.30;99.50;;;;;;5098821;28;19916;-82
2023/06/28 08:23:02;;;;;;;;;;;22.20;99.90;;;;;;5114665;28;19912;-82
2023/06/28 08:25:28;;;;;;;;;;;22.20;99.60;;;;;;5115221;28;20466;-82
2023/06/28 08:27:53;;;;;;;;;;;22.40;98.90;;;;;;5115008;28;19951;-83
2023/06/28 08:30:19;;;;;;;;;;;22.60;98.70;;;;;;5115281;28;20362;-83
2023/06/28 08:32:44;;;;;;;;;;;22.30;98.70;;;;;;5098174;28;19916;-83
2023/06/28 08:35:10;;;;;;;;;;;22.30;98.40;;;;;;5097775;28;20420;-83
2023/06/28 08:37:36;;;;;;;;;;;22.70;98.30;;;;;;5114520;28;19907;-83
2023/06/28 08:40:06;;;;;;;;;;;23.30;97.70;;;;;;5097220;28;19916;-83
2023/06/28 08:42:33;;;;;;;;;;;24.60;96.40;;;;;;5117086;28;19980;-83
2023/06/28 08:44:59;;;;;;;;;;;26.00;94.30;;;;;;5097667;28;19964;-82
2023/06/28 08:47:34;;;;;;;;;;;26.90;93.00;;;;;;5116209;28;19919;-81
2023/06/28 08:50:01;;;;;;;;;;;27.30;92.20;;;;;;5113887;28;19954;-81
2023/06/28 08:52:27;;;;;;;;;;;27.70;90.20;;;;;;5132812;28;19916;-81
2023/06/28 08:54:53;;;;;;;;;;;28.70;89.50;;;;;;5114377;28;19911;-81
2023/06/28 08:57:41;;;;;;;;;;;28.10;85.00;;;;;;5114554;28;19912;-81
2023/06/28 09:00:10;;;;;;;;;;;27.50;82.40;;;;;;5098741;27;19922;-81
2023/06/28 09:02:36;;;;;;;;;;;27.30;81.30;;;;;;5135704;27;19911;-82
2023/06/28 09:05:02;;;;;;;;;;;26.60;81.90;;;;;;5136567;27;19916;-82
2023/06/28 09:07:29;;;;;;;;;;;26.00;83.10;;;;;;5118563;27;19943;-81
2023/06/28 09:10:01;;;;;;;;;;;25.60;85.30;;;;;;5101103;27;19916;-82
2023/06/28 09:12:28;;;;;;;;;;;24.70;85.70;;;;;;5119075;27;19927;-82
2023/06/28 09:14:55;;;;;;;;;;;24.10;88.60;;;;;;5118413;27;19911;-82
2023/06/28 09:17:21;;;;;;;;;;;23.60;89.70;;;;;;5113202;27;20389;-81
2023/06/28 09:19:47;;;;;;;;;;;22.90;92.00;;;;;;5152843;27;19923;-82
2023/06/28 09:22:12;;;;;;;;;;;22.50;92.00;;;;;;5118881;27;19922;-82
2023/06/28 09:24:38;;;;;;;;;;;22.20;91.50;;;;;;5101219;27;19916;-81
2023/06/28 09:27:05;;;;;;;;;;;22.60;91.50;;;;;;5118721;27;20286;-82
2023/06/28 09:29:30;;;;;;;;;;;24.00;90.40;;;;;;5118237;27;19919;-82
2023/06/28 09:31:56;;;;;;;;;;;25.60;85.40;;;;;;5136980;27;19911;-83
2023/06/28 09:34:22;;;;;;;;;;;26.20;80.50;;;;;;5100803;27;19919;-82
2023/06/28 09:36:51;;;;;;;;;;;26.70;79.90;;;;;;5117382;27;19908;-81
2023/06/28 09:39:18;;;;;;;;;;;26.80;80.50;;;;;;5100333;27;19923;-81
2023/06/28 09:41:50;;;;;;;;;;;26.20;79.60;;;;;;5117700;27;19915;-82
2023/06/28 09:44:28;;;;;;;;;;;26.00;80.10;;;;;;5100450;27;20370;-82
2023/06/28 09:46:59;;;;;;;;;;;26.10;79.10;;;;;;5116766;27;20496;-82
2023/06/28 09:49:24;;;;;;;;;;;25.80;81.10;;;;;;5099706;27;19916;-82
2023/06/28 09:52:03;;;;;;;;;;;25.30;81.40;;;;;;5100827;27;20293;-82
2023/06/28 09:54:30;;;;;;;;;;;24.90;82.60;;;;;;5092784;27;20374;-82
2023/06/28 09:56:55;;;;;;;;;;;25.60;82.00;;;;;;5100621;27;20079;-82
2023/06/28 09:59:23;;;;;;;;;;;26.00;82.00;;;;;;5100384;27;19965;-83
2023/06/28 10:01:49;;;;;;;;;;;25.30;81.90;;;;;;5117506;27;19916;-82
2023/06/28 10:04:16;;;;;;;;;;;24.40;83.90;;;;;;5136794;27;19912;-82
2023/06/28 10:07:01;;;;;;;;;;;24.30;85.10;;;;;;5117615;27;19919;-83
2023/06/28 10:09:34;;;;;;;;;;;24.40;85.90;;;;;;5117850;27;19923;-82
2023/06/28 10:12:00;;;;;;;;;;;25.20;86.40;;;;;;5099944;27;20368;-82
2023/06/28 10:14:30;;;;;;;;;;;25.10;86.10;;;;;;5100217;27;20253;-82
2023/06/28 10:16:57;;;;;;;;;;;25.30;84.50;;;;;;5100564;27;19919;-82
2023/06/28 10:19:22;;;;;;;;;;;24.90;87.30;;;;;;5100061;27;19938;-82
2023/06/28 10:21:48;;;;;;;;;;;24.90;87.00;;;;;;5099993;27;20347;-82
2023/06/28 10:24:14;;;;;;;;;;;24.60;87.40;;;;;;5099441;27;20362;-82
2023/06/28 10:26:41;;;;;;;;;;;24.80;87.00;;;;;;5099615;27;19934;-82
2023/06/28 10:29:06;;;;;;;;;;;24.90;86.20;;;;;;5116566;27;19915;-82
2023/06/28 10:31:32;;;;;;;;;;;25.60;85.40;;;;;;5098803;27;19960;-83
2023/06/28 10:33:59;;;;;;;;;;;25.70;84.80;;;;;;5099701;27;19915;-84
2023/06/28 10:36:26;;;;;;;;;;;25.90;85.30;;;;;;5134098;27;19963;-83
2023/06/28 10:38:51;;;;;;;;;;;25.80;84.10;;;;;;5116321;27;19950;-83
2023/06/28 10:41:17;;;;;;;;;;;25.20;85.30;;;;;;5116475;27;19951;-83
2023/06/28 10:43:44;;;;;;;;;;;25.00;84.10;;;;;;5099388;27;20260;-83
2023/06/28 10:46:22;;;;;;;;;;;25.50;85.40;;;;;;5116278;27;19976;-83
2023/06/28 10:48:52;;;;;;;;;;;26.20;84.20;;;;;;5099537;27;20327;-83
2023/06/28 10:51:19;;;;;;;;;;;26.40;83.10;;;;;;5099541;27;19946;-83
2023/06/28 10:53:59;;;;;;;;;;;26.30;84.10;;;;;;5117128;27;19925;-83
2023/06/28 10:56:34;;;;;;;;;;;25.40;84.80;;;;;;5099849;27;19912;-83
2023/06/28 10:59:07;;;;;;;;;;;24.70;84.50;;;;;;5104500;27;19987;-82
2023/06/28 11:01:38;;;;;;;;;;;24.00;86.60;;;;;;5100824;27;19956;-83
2023/06/28 11:04:30;;;;;;;;;;;23.20;89.50;;;;;;5115829;27;19912;-82
2023/06/28 11:07:02;;;;;;;;;;;22.70;90.10;;;;;;5131023;27;19983;-82
2023/06/28 11:09:27;;;;;;;;;;;22.90;90.40;;;;;;5108907;27;19923;-82
2023/06/28 11:12:00;;;;;;;;;;;23.40;90.00;;;;;;5115909;27;20447;-82
2023/06/28 11:14:26;;;;;;;;;;;23.90;88.00;;;;;;5098608;27;19911;-83
2023/06/28 11:16:53;;;;;;;;;;;24.20;86.20;;;;;;5098729;27;20418;-83
2023/06/28 11:19:22;;;;;;;;;;;24.00;86.30;;;;;;5115797;27;19967;-83
2023/06/28 11:21:57;;;;;;;;;;;23.70;87.70;;;;;;5115909;27;20010;-83
2023/06/28 11:24:29;;;;;;;;;;;24.10;87.40;;;;;;5115345;27;19972;-83
2023/06/28 11:26:54;;;;;;;;;;;24.50;88.30;;;;;;5111236;27;19935;-83
2023/06/28 11:29:20;;;;;;;;;;;25.20;85.60;;;;;;5098361;27;20382;-83
2023/06/28 11:31:50;;;;;;;;;;;25.20;84.60;;;;;;5098653;27;19912;-83
2023/06/28 11:34:17;;;;;;;;;;;24.60;85.50;;;;;;5098160;27;20018;-84
2023/06/28 11:36:43;;;;;;;;;;;24.20;87.30;;;;;;5115658;27;19918;-83
2023/06/28 11:39:13;;;;;;;;;;;24.30;87.00;;;;;;5098331;27;20351;-83
2023/06/28 11:41:39;;;;;;;;;;;25.00;85.10;;;;;;5115901;27;20617;-84
2023/06/28 11:44:05;;;;;;;;;;;25.80;84.10;;;;;;5098524;27;19919;-84
2023/06/28 11:46:34;;;;;;;;;;;26.00;83.00;;;;;;5115303;27;19922;-84
2023/06/28 11:49:00;;;;;;;;;;;26.00;80.70;;;;;;5115323;27;19964;-84
2023/06/28 11:51:26;;;;;;;;;;;25.40;83.30;;;;;;5115535;27;19916;-84
2023/06/28 11:53:55;;;;;;;;;;;25.60;83.70;;;;;;5098494;27;20001;-83
2023/06/28 11:56:39;;;;;;;;;;;25.90;82.90;;;;;;5098262;27;20022;-84
2023/06/28 11:59:14;;;;;;;;;;;26.00;83.30;;;;;;5114679;27;20039;-84
2023/06/28 12:01:44;;;;;;;;;;;25.90;82.10;;;;;;5098576;28;19962;-84
2023/06/28 12:04:34;;;;;;;;;;;26.20;82.30;;;;;;5115330;28;19908;-84
2023/06/28 12:07:04;;;;;;;;;;;26.60;81.40;;;;;;5115978;28;20002;-83
2023/06/28 12:09:31;;;;;;;;;;;27.20;83.00;;;;;;5115338;28;19922;-84
2023/06/28 12:11:59;;;;;;;;;;;27.50;79.90;;;;;;5098173;28;19918;-85
2023/06/28 12:14:25;;;;;;;;;;;28.10;81.90;;;;;;5115713;28;19926;-84
2023/06/28 12:16:51;;;;;;;;;;;27.60;81.50;;;;;;5133545;28;19918;-84
2023/06/28 12:19:17;;;;;;;;;;;26.50;81.70;;;;;;5098117;28;20374;-83
2023/06/28 12:21:43;;;;;;;;;;;25.60;84.80;;;;;;5098646;28;20275;-84
2023/06/28 12:24:12;;;;;;;;;;;25.20;85.30;;;;;;5098136;28;19912;-83
2023/06/28 12:26:38;;;;;;;;;;;25.10;85.10;;;;;;5097705;28;20325;-84
2023/06/28 12:29:07;;;;;;;;;;;25.30;86.80;;;;;;5098110;28;19919;-84
2023/06/28 12:31:43;;;;;;;;;;;26.00;82.70;;;;;;5098043;28;19912;-84
2023/06/28 12:34:09;;;;;;;;;;;27.00;80.80;;;;;;5115159;27;19916;-84
2023/06/28 12:36:34;;;;;;;;;;;27.50;81.80;;;;;;5093849;27;20307;-85
2023/06/28 12:39:00;;;;;;;;;;;27.50;78.70;;;;;;5102441;27;19911;-81
2023/06/28 12:41:27;;;;;;;;;;;26.90;79.00;;;;;;5119110;27;19919;-82
2023/06/28 12:43:56;;;;;;;;;;;27.40;78.60;;;;;;5118634;27;19912;-83
2023/06/28 12:46:22;;;;;;;;;;;27.60;77.80;;;;;;5099389;27;19916;-83
2023/06/28 12:48:54;;;;;;;;;;;26.60;77.70;;;;;;5101663;27;20677;-83
2023/06/28 12:51:47;;;;;;;;;;;26.00;79.70;;;;;;5119045;27;19916;-83
2023/06/28 12:54:13;;;;;;;;;;;25.30;83.30;;;;;;5118507;27;20555;-83
2023/06/28 12:56:40;;;;;;;;;;;25.00;86.20;;;;;;5118690;27;19918;-83
2023/06/28 12:59:05;;;;;;;;;;;25.80;84.20;;;;;;5101733;27;19918;-83
2023/06/28 13:01:33;;;;;;;;;;;26.60;82.30;;;;;;5101785;27;19915;-83
2023/06/28 13:03:59;;;;;;;;;;;27.20;80.60;;;;;;5100944;27;19954;-83
2023/06/28 13:06:24;;;;;;;;;;;27.50;81.00;;;;;;5116189;27;19954;-83
2023/06/28 13:08:52;;;;;;;8.95;2.42;;;27.90;80.20;;;;;;5128807;27;19916;-83
2023/06/28 13:11:18;;;;;;;8.50;2.47;;;28.90;78.70;;;;;;5113412;27;20066;-83
2023/06/28 13:13:45;;;;;;;4.50;2.53;;;29.80;74.70;;;;;;5099823;27;20036;-83
2023/06/28 13:16:10;;;;;;;;;;;30.10;73.40;;;;;;5103892;27;20035;-86
2023/06/28 13:18:36;;;;;;;;;;;30.10;75.50;;;;;;5110698;27;19919;-85
2023/06/28 13:21:02;;;;;;;;;;;29.30;73.10;;;;;;5101466;27;20449;-85
2023/06/28 13:23:27;;;;;;;;;;;28.90;73.80;;;;;;5119441;27;19922;-85
2023/06/28 13:25:53;;;;;;;;;;;28.90;74.80;;;;;;5119642;27;20296;-85
2023/06/28 13:28:19;;;;;;;;;;;28.80;72.30;;;;;;5101852;27;19919;-85
2023/06/28 13:30:44;;;;;;;;;;;28.60;73.20;;;;;;5137334;27;20377;-85
2023/06/28 13:33:10;;;;;;;;;;;28.60;72.50;;;;;;5101588;27;20357;-85
2023/06/28 13:35:36;;;;;;;;;;;28.40;73.30;;;;;;5119315;27;19947;-86
2023/06/28 13:38:01;;;;;;;;;;;28.50;73.70;;;;;;5101838;27;19934;-86
2023/06/28 13:40:27;;;;;;;;;;;28.30;74.10;;;;;;5118958;27;19916;-86
2023/06/28 13:42:52;;;;;;;;;;;27.70;75.80;;;;;;5102858;27;20453;-86
2023/06/28 13:45:18;;;;;;;;;;;28.20;75.70;;;;;;5097531;27;19911;-85
2023/06/28 13:47:44;;;;;;;;;;;28.30;74.30;;;;;;5101721;27;19917;-85
2023/06/28 13:50:09;;;;;;;;;;;28.20;73.50;;;;;;5099755;27;19938;-85
2023/06/28 13:52:35;;;;;;;;;;;28.40;70.90;;;;;;5102546;27;19922;-86
2023/06/28 13:55:01;;;;;;;;;;;28.60;71.50;;;;;;5100799;27;19918;-85
2023/06/28 13:57:26;;;;;;;;;;;28.40;70.30;;;;;;5118438;27;19946;-86
2023/06/28 14:00:10;;;;;;;;;;;28.70;72.20;;;;;;5101298;27;19919;-85
2023/06/28 14:02:37;;;;;;;;;;;28.30;73.30;;;;;;5101399;27;19911;-85
2023/06/28 14:05:02;;;;;;;;;;;28.30;70.60;;;;;;5118833;27;19963;-85
2023/06/28 14:07:28;;;;;;;;;;;28.90;69.80;;;;;;5118710;27;20656;-86
2023/06/28 14:10:03;;;;;;;;;;;28.30;71.70;;;;;;5137041;27;19916;-85
2023/06/28 14:12:28;;;;;;;;;;;27.70;73.20;;;;;;5101794;27;20647;-85
2023/06/28 14:14:54;;;;;;;;;;;27.70;74.90;;;;;;5118258;27;19911;-85
2023/06/28 14:17:20;;;;;;;;;;;28.30;72.00;;;;;;5101430;27;20496;-85